Time,TemperatureF,DewpointF,PressureIn,WindDirection,WindDirectionDegrees,WindSpeedMPH,WindSpeedGustMPH,Humidity,HourlyPrecipIn,Conditions,Clouds,dailyrainin,SoftwareType,DateUTC
2013-06-16 00:05:00,67.8,65.1,29.86,SSE,153,1.0,3.0,91,0.00,,,0.00,Wunderground v.1.15,2013-06-16 05:05:00,
2013-06-16 00:10:00,67.8,65.1,29.86,SSE,153,1.0,1.0,91,0.00,,,0.00,Wunderground v.1.15,2013-06-16 05:10:00,
2013-06-16 00:20:00,67.8,65.1,29.86,SW,225,1.0,1.0,91,0.00,,,0.00,Wunderground v.1.15,2013-06-16 05:20:00,
2013-06-16 00:25:00,67.9,64.9,29.86,SW,225,1.0,1.0,90,0.00,,,0.00,Wunderground v.1.15,2013-06-16 05:25:00,
2013-06-16 00:30:00,67.9,64.9,29.86,SSW,204,1.0,1.0,90,0.00,,,0.00,Wunderground v.1.15,2013-06-16 05:30:00,
2013-06-16 00:40:00,67.9,64.9,29.88,SW,229,3.0,3.0,90,0.00,,,0.00,Wunderground v.1.15,2013-06-16 05:40:00,
2013-06-16 00:45:00,67.9,65.2,29.88,SW,232,2.0,3.0,91,0.00,,,0.00,Wunderground v.1.15,2013-06-16 05:45:00,
2013-06-16 00:55:00,67.9,65.2,29.89,SSE,164,1.0,1.0,91,0.00,,,0.00,Wunderground v.1.15,2013-06-16 05:55:00,
2013-06-16 01:05:00,67.9,65.2,29.89,SW,214,1.0,1.0,91,0.00,,,0.00,Wunderground v.1.15,2013-06-16 06:05:00,
2013-06-16 01:15:00,67.9,65.2,29.89,South,169,1.0,1.0,91,0.00,,,0.00,Wunderground v.1.15,2013-06-16 06:15:00,
2013-06-16 01:25:00,67.9,65.2,29.89,SSE,167,0.0,3.0,91,0.00,,,0.00,Wunderground v.1.15,2013-06-16 06:25:00,
2013-06-16 01:35:00,68.1,65.4,29.89,South,170,1.0,1.0,91,0.00,,,0.00,Wunderground v.1.15,2013-06-16 06:35:00,
2013-06-16 01:40:00,67.9,65.2,29.89,South,169,1.0,1.0,91,0.00,,,0.00,Wunderground v.1.15,2013-06-16 06:40:00,
2013-06-16 01:50:00,67.9,65.2,29.87,South,169,0.0,0.0,91,0.00,,,0.00,Wunderground v.1.15,2013-06-16 06:50:00,
2013-06-16 02:00:00,67.9,65.5,29.87,South,169,0.0,0.0,92,0.00,,,0.00,Wunderground v.1.15,2013-06-16 07:00:00,
2013-06-16 02:05:00,67.8,65.4,29.86,South,169,0.0,0.0,92,0.00,,,0.00,Wunderground v.1.15,2013-06-16 07:05:00,
2013-06-16 02:10:00,67.8,65.4,29.86,South,169,0.0,0.0,92,0.00,,,0.00,Wunderground v.1.15,2013-06-16 07:10:00,
2013-06-16 02:20:00,67.8,65.4,29.86,South,169,0.0,0.0,92,0.00,,,0.00,Wunderground v.1.15,2013-06-16 07:20:00,
2013-06-16 02:30:00,67.8,65.4,29.86,South,169,0.0,0.0,92,0.00,,,0.00,Wunderground v.1.15,2013-06-16 07:30:00,
2013-06-16 02:40:00,67.8,65.4,29.85,South,169,0.0,0.0,92,0.00,,,0.00,Wunderground v.1.15,2013-06-16 07:40:00,
2013-06-16 02:50:00,67.6,65.2,29.86,South,169,0.0,0.0,92,0.00,,,0.00,Wunderground v.1.15,2013-06-16 07:50:00,
2013-06-16 03:00:00,67.8,65.4,29.86,South,169,0.0,0.0,92,0.00,,,0.00,Wunderground v.1.15,2013-06-16 08:00:00,
2013-06-16 03:05:00,67.8,65.4,29.86,South,169,0.0,0.0,92,0.00,,,0.00,Wunderground v.1.15,2013-06-16 08:05:00,
2013-06-16 03:15:00,67.8,65.4,29.86,South,169,0.0,0.0,92,0.00,,,0.00,Wunderground v.1.15,2013-06-16 08:15:00,
2013-06-16 03:25:00,67.6,65.2,29.86,South,169,0.0,0.0,92,0.00,,,0.00,Wunderground v.1.15,2013-06-16 08:25:00,
2013-06-16 03:35:00,67.6,65.5,29.86,South,169,0.0,0.0,93,0.00,,,0.00,Wunderground v.1.15,2013-06-16 08:35:00,
2013-06-16 03:45:00,67.6,65.5,29.86,South,169,0.0,0.0,93,0.00,,,0.00,Wunderground v.1.15,2013-06-16 08:45:00,
2013-06-16 03:50:00,67.4,65.3,29.86,South,169,0.0,0.0,93,0.00,,,0.00,Wunderground v.1.15,2013-06-16 08:50:00,
2013-06-16 04:00:00,67.8,65.7,29.86,South,169,0.0,1.0,93,0.00,,,0.00,Wunderground v.1.15,2013-06-16 09:00:00,
2013-06-16 04:05:00,67.8,65.7,29.87,South,169,0.0,1.0,93,0.00,,,0.00,Wunderground v.1.15,2013-06-16 09:05:00,
2013-06-16 04:15:00,67.8,65.7,29.87,South,169,0.0,0.0,93,0.00,,,0.00,Wunderground v.1.15,2013-06-16 09:15:00,
2013-06-16 04:20:00,67.6,65.5,29.88,South,169,0.0,0.0,93,0.00,,,0.00,Wunderground v.1.15,2013-06-16 09:20:00,
2013-06-16 04:30:00,67.6,65.5,29.88,South,169,0.0,0.0,93,0.00,,,0.00,Wunderground v.1.15,2013-06-16 09:30:00,
2013-06-16 04:40:00,67.6,65.5,29.88,South,169,0.0,0.0,93,0.00,,,0.00,Wunderground v.1.15,2013-06-16 09:40:00,
2013-06-16 04:50:00,67.8,65.7,29.88,South,169,0.0,0.0,93,0.00,,,0.00,Wunderground v.1.15,2013-06-16 09:50:00,
2013-06-16 04:55:00,67.8,65.7,29.88,South,169,0.0,0.0,93,0.00,,,0.00,Wunderground v.1.15,2013-06-16 09:55:00,
2013-06-16 05:05:00,67.4,65.3,29.88,South,169,0.0,0.0,93,0.00,,,0.00,Wunderground v.1.15,2013-06-16 10:05:00,
2013-06-16 05:15:00,67.3,65.2,29.88,South,169,0.0,0.0,93,0.00,,,0.00,Wunderground v.1.15,2013-06-16 10:15:00,
2013-06-16 05:25:00,67.4,65.3,29.88,South,169,0.0,0.0,93,0.00,,,0.00,Wunderground v.1.15,2013-06-16 10:25:00,
2013-06-16 05:35:00,67.8,65.7,29.88,South,169,0.0,0.0,93,0.00,,,0.00,Wunderground v.1.15,2013-06-16 10:35:00,
2013-06-16 05:40:00,67.6,65.5,29.88,South,169,0.0,0.0,93,0.00,,,0.00,Wunderground v.1.15,2013-06-16 10:40:00,
2013-06-16 05:50:00,67.3,65.2,29.88,South,169,0.0,0.0,93,0.00,,,0.00,Wunderground v.1.15,2013-06-16 10:50:00,
2013-06-16 06:00:00,67.4,65.3,29.88,South,169,0.0,0.0,93,0.00,,,0.00,Wunderground v.1.15,2013-06-16 11:00:00,
2013-06-16 06:05:00,67.6,65.5,29.89,South,169,0.0,0.0,93,0.00,,,0.00,Wunderground v.1.15,2013-06-16 11:05:00,
2013-06-16 06:15:00,67.8,65.7,29.89,South,169,0.0,0.0,93,0.00,,,0.00,Wunderground v.1.15,2013-06-16 11:15:00,
2013-06-16 06:25:00,67.8,65.7,29.89,South,169,0.0,0.0,93,0.00,,,0.00,Wunderground v.1.15,2013-06-16 11:25:00,
2013-06-16 06:35:00,67.9,65.8,29.89,South,169,0.0,0.0,93,0.00,,,0.00,Wunderground v.1.15,2013-06-16 11:35:00,
2013-06-16 06:45:00,68.3,66.2,29.89,South,169,0.0,0.0,93,0.00,,,0.00,Wunderground v.1.15,2013-06-16 11:45:00,
2013-06-16 06:55:00,68.4,66.3,29.90,South,169,0.0,0.0,93,0.00,,,0.00,Wunderground v.1.15,2013-06-16 11:55:00,
2013-06-16 07:00:00,68.6,66.5,29.90,South,169,0.0,0.0,93,0.00,,,0.00,Wunderground v.1.15,2013-06-16 12:00:00,
2013-06-16 07:05:00,68.6,66.5,29.90,South,169,0.0,0.0,93,0.00,,,0.00,Wunderground v.1.15,2013-06-16 12:05:00,
2013-06-16 07:10:00,68.6,66.5,29.90,South,169,0.0,0.0,93,0.00,,,0.00,Wunderground v.1.15,2013-06-16 12:10:00,
2013-06-16 07:20:00,68.8,66.7,29.90,South,169,0.0,0.0,93,0.00,,,0.00,Wunderground v.1.15,2013-06-16 12:20:00,
2013-06-16 07:30:00,69.3,67.2,29.90,South,169,0.0,0.0,93,0.00,,,0.00,Wunderground v.1.15,2013-06-16 12:30:00,
2013-06-16 07:40:00,69.6,67.5,29.90,South,169,0.0,0.0,93,0.00,,,0.00,Wunderground v.1.15,2013-06-16 12:40:00,
2013-06-16 07:50:00,70.1,68.0,29.90,South,169,0.0,0.0,93,0.00,,,0.00,Wunderground v.1.15,2013-06-16 12:50:00,
2013-06-16 07:55:00,70.3,68.2,29.90,South,169,0.0,0.0,93,0.00,,,0.00,Wunderground v.1.15,2013-06-16 12:55:00,
2013-06-16 08:00:00,70.8,68.4,29.90,South,169,0.0,0.0,92,0.00,,,0.00,Wunderground v.1.15,2013-06-16 13:00:00,
2013-06-16 08:05:00,70.8,68.0,29.90,SE,138,1.0,1.0,91,0.00,,,0.00,Wunderground v.1.15,2013-06-16 13:05:00,
2013-06-16 08:15:00,70.9,68.1,29.90,SSE,159,1.0,1.0,91,0.00,,,0.00,Wunderground v.1.15,2013-06-16 13:15:00,
2013-06-16 08:25:00,71.3,68.2,29.90,SE,144,0.0,3.0,90,0.00,,,0.00,Wunderground v.1.15,2013-06-16 13:25:00,
2013-06-16 08:35:00,71.6,68.2,29.90,SSE,167,1.0,1.0,89,0.00,,,0.00,Wunderground v.1.15,2013-06-16 13:35:00,
2013-06-16 08:45:00,72.1,68.3,29.90,SSE,166,0.0,2.0,88,0.00,,,0.00,Wunderground v.1.15,2013-06-16 13:45:00,
2013-06-16 08:55:00,72.7,68.6,29.90,SSE,163,1.0,2.0,87,0.00,,,0.00,Wunderground v.1.15,2013-06-16 13:55:00,
2013-06-16 09:00:00,73.0,68.9,29.90,South,180,1.0,1.0,87,0.00,,,0.00,Wunderground v.1.15,2013-06-16 14:00:00,
2013-06-16 09:05:00,73.2,68.8,29.90,South,171,2.0,4.0,86,0.00,,,0.00,Wunderground v.1.15,2013-06-16 14:05:00,
2013-06-16 09:10:00,73.5,68.4,29.90,South,186,3.0,3.0,84,0.00,,,0.00,Wunderground v.1.15,2013-06-16 14:10:00,
2013-06-16 09:20:00,74.4,69.2,29.89,South,186,1.0,3.0,84,0.00,,,0.00,Wunderground v.1.15,2013-06-16 14:20:00,
2013-06-16 09:30:00,74.7,68.8,29.89,SSE,167,1.0,1.0,82,0.00,,,0.00,Wunderground v.1.15,2013-06-16 14:30:00,
2013-06-16 09:40:00,74.9,69.0,29.89,SSW,194,1.0,1.0,82,0.00,,,0.00,Wunderground v.1.15,2013-06-16 14:40:00,
2013-06-16 09:45:00,75.1,69.2,29.89,SSW,194,0.0,1.0,82,0.00,,,0.00,Wunderground v.1.15,2013-06-16 14:45:00,
2013-06-16 09:55:00,75.3,69.1,29.89,SSW,194,0.0,0.0,81,0.00,,,0.00,Wunderground v.1.15,2013-06-16 14:55:00,
2013-06-16 10:05:00,76.1,69.5,29.88,SSW,192,1.0,1.0,80,0.00,,,0.00,Wunderground v.1.15,2013-06-16 15:05:00,
2013-06-16 10:15:00,76.7,69.3,29.88,SSW,207,1.0,1.0,78,0.00,,,0.00,Wunderground v.1.15,2013-06-16 15:15:00,
2013-06-16 10:20:00,76.8,69.4,29.89,SSW,204,1.0,1.0,78,0.00,,,0.00,Wunderground v.1.15,2013-06-16 15:20:00,
2013-06-16 10:30:00,78.1,70.7,29.89,SSE,159,0.0,0.0,78,0.00,,,0.00,Wunderground v.1.15,2013-06-16 15:30:00,
2013-06-16 10:40:00,79.8,71.2,29.88,SSE,163,0.0,0.0,75,0.00,,,0.00,Wunderground v.1.15,2013-06-16 15:40:00,
2013-06-16 10:50:00,80.3,70.0,29.88,South,189,1.0,2.0,71,0.00,,,0.00,Wunderground v.1.15,2013-06-16 15:50:00,
2013-06-16 10:55:00,80.3,70.0,29.88,South,177,1.0,2.0,71,0.00,,,0.00,Wunderground v.1.15,2013-06-16 15:55:00,
2013-06-16 11:05:00,80.1,69.8,29.88,South,177,1.0,3.0,71,0.00,,,0.00,Wunderground v.1.15,2013-06-16 16:05:00,
2013-06-16 11:15:00,80.3,69.2,29.88,South,171,2.0,2.0,69,0.00,,,0.00,Wunderground v.1.15,2013-06-16 16:15:00,
2013-06-16 11:25:00,81.1,70.4,29.88,SSE,168,3.0,3.0,70,0.00,,,0.00,Wunderground v.1.15,2013-06-16 16:25:00,
2013-06-16 11:35:00,80.7,71.6,29.88,South,178,2.0,3.0,74,0.00,,,0.00,Wunderground v.1.15,2013-06-16 16:35:00,
2013-06-16 11:45:00,81.8,71.1,29.88,SSE,160,3.0,4.0,70,0.00,,,0.00,Wunderground v.1.15,2013-06-16 16:45:00,
2013-06-16 11:55:00,82.4,71.2,29.88,West,273,3.0,3.0,69,0.00,,,0.00,Wunderground v.1.15,2013-06-16 16:55:00,
2013-06-16 12:00:00,82.8,71.6,29.88,SSE,163,2.0,4.0,69,0.00,,,0.00,Wunderground v.1.15,2013-06-16 17:00:00,
2013-06-16 12:05:00,82.8,71.6,29.87,West,269,2.0,4.0,69,0.00,,,0.00,Wunderground v.1.15,2013-06-16 17:05:00,
2013-06-16 12:10:00,83.0,72.2,29.87,South,181,2.0,2.0,70,0.00,,,0.00,Wunderground v.1.15,2013-06-16 17:10:00,
2013-06-16 12:20:00,82.4,71.2,29.87,SSW,202,1.0,1.0,69,0.00,,,0.00,Wunderground v.1.15,2013-06-16 17:20:00,
2013-06-16 12:30:00,83.6,71.9,29.87,SSE,160,2.0,2.0,68,0.00,,,0.00,Wunderground v.1.15,2013-06-16 17:30:00,
2013-06-16 12:40:00,83.6,71.5,29.86,West,274,3.0,5.0,67,0.00,,,0.00,Wunderground v.1.15,2013-06-16 17:40:00,
2013-06-16 12:50:00,84.3,72.6,29.85,SW,229,3.0,5.0,68,0.00,,,0.00,Wunderground v.1.15,2013-06-16 17:50:00,
2013-06-16 12:55:00,84.7,72.5,29.85,SSE,165,4.0,5.0,67,0.00,,,0.00,Wunderground v.1.15,2013-06-16 17:55:00,
2013-06-16 13:05:00,84.7,73.4,29.85,SSW,207,4.0,4.0,69,0.00,,,0.00,Wunderground v.1.15,2013-06-16 18:05:00,
2013-06-16 13:10:00,84.9,73.2,29.85,SSE,157,3.0,5.0,68,0.00,,,0.00,Wunderground v.1.15,2013-06-16 18:10:00,
2013-06-16 13:20:00,84.9,70.4,29.85,SW,224,4.0,4.0,62,0.00,,,0.00,Wunderground v.1.15,2013-06-16 18:20:00,
2013-06-16 13:30:00,85.5,71.9,29.85,South,189,3.0,5.0,64,0.00,,,0.00,Wunderground v.1.15,2013-06-16 18:30:00,
2013-06-16 13:40:00,85.7,72.6,29.84,SW,220,4.0,4.0,65,0.00,,,0.00,Wunderground v.1.15,2013-06-16 18:40:00,
2013-06-16 13:45:00,85.7,72.1,29.84,South,190,3.0,4.0,64,0.00,,,0.00,Wunderground v.1.15,2013-06-16 18:45:00,
2013-06-16 13:55:00,86.1,72.0,29.83,South,191,2.0,2.0,63,0.00,,,0.00,Wunderground v.1.15,2013-06-16 18:55:00,
2013-06-16 14:05:00,85.7,72.1,29.83,SSE,150,3.0,6.0,64,0.00,,,0.00,Wunderground v.1.15,2013-06-16 19:05:00,
2013-06-16 14:15:00,86.1,71.1,29.83,SSW,208,2.0,6.0,61,0.00,,,0.00,Wunderground v.1.15,2013-06-16 19:15:00,
2013-06-16 14:20:00,85.7,71.2,29.83,SW,217,2.0,4.0,62,0.00,,,0.00,Wunderground v.1.15,2013-06-16 19:20:00,
2013-06-16 14:30:00,85.9,69.9,29.83,West,267,2.0,4.0,59,0.00,,,0.00,Wunderground v.1.15,2013-06-16 19:30:00,
2013-06-16 14:40:00,85.3,70.3,29.83,SW,236,2.0,2.0,61,0.00,,,0.00,Wunderground v.1.15,2013-06-16 19:40:00,
2013-06-16 14:45:00,85.3,70.8,29.83,SW,236,2.0,2.0,62,0.00,,,0.00,Wunderground v.1.15,2013-06-16 19:45:00,
2013-06-16 14:55:00,84.7,70.2,29.83,WNW,300,2.0,2.0,62,0.00,,,0.00,Wunderground v.1.15,2013-06-16 19:55:00,
2013-06-16 15:05:00,84.5,70.0,29.83,West,259,1.0,1.0,62,0.00,,,0.00,Wunderground v.1.15,2013-06-16 20:05:00,
2013-06-16 15:10:00,84.5,71.0,29.83,WSW,248,1.0,1.0,64,0.00,,,0.00,Wunderground v.1.15,2013-06-16 20:10:00,
2013-06-16 15:20:00,86.3,72.7,29.82,SSE,165,1.0,4.0,64,0.00,,,0.00,Wunderground v.1.15,2013-06-16 20:20:00,
2013-06-16 15:30:00,87.4,70.8,29.82,WSW,258,2.0,2.0,58,0.00,,,0.00,Wunderground v.1.15,2013-06-16 20:30:00,
2013-06-16 15:40:00,87.2,70.6,29.82,West,259,1.0,2.0,58,0.00,,,0.00,Wunderground v.1.15,2013-06-16 20:40:00,
2013-06-16 15:45:00,87.4,70.8,29.82,SSW,193,0.0,2.0,58,0.00,,,0.00,Wunderground v.1.15,2013-06-16 20:45:00,
2013-06-16 15:55:00,88.2,70.5,29.82,ESE,119,1.0,2.0,56,0.00,,,0.00,Wunderground v.1.15,2013-06-16 20:55:00,
2013-06-16 16:05:00,87.8,73.2,29.81,SSE,165,2.0,3.0,62,0.00,,,0.00,Wunderground v.1.15,2013-06-16 21:05:00,
2013-06-16 16:10:00,87.8,72.2,29.81,South,181,1.0,1.0,60,0.00,,,0.00,Wunderground v.1.15,2013-06-16 21:10:00,
2013-06-16 16:15:00,87.6,71.0,29.81,SW,236,2.0,2.0,58,0.00,,,0.00,Wunderground v.1.15,2013-06-16 21:15:00,
2013-06-16 16:25:00,87.0,70.9,29.81,SSE,165,1.0,3.0,59,0.00,,,0.00,Wunderground v.1.15,2013-06-16 21:25:00,
2013-06-16 16:30:00,86.5,71.9,29.81,South,187,2.0,4.0,62,0.00,,,0.00,Wunderground v.1.15,2013-06-16 21:30:00,
2013-06-16 16:40:00,86.5,69.5,29.81,West,270,2.0,2.0,57,0.00,,,0.00,Wunderground v.1.15,2013-06-16 21:40:00,
2013-06-16 16:50:00,87.2,71.6,29.80,SSE,161,2.0,2.0,60,0.00,,,0.00,Wunderground v.1.15,2013-06-16 21:50:00,
2013-06-16 16:55:00,86.7,71.6,29.80,South,178,2.0,2.0,61,0.00,,,0.00,Wunderground v.1.15,2013-06-16 21:55:00,
2013-06-16 17:05:00,85.7,71.2,29.80,South,189,1.0,1.0,62,0.00,,,0.00,Wunderground v.1.15,2013-06-16 22:05:00,
2013-06-16 17:15:00,85.5,72.4,29.80,South,173,1.0,4.0,65,0.00,,,0.00,Wunderground v.1.15,2013-06-16 22:15:00,
2013-06-16 17:25:00,85.9,71.4,29.80,WSW,249,0.0,1.0,62,0.00,,,0.00,Wunderground v.1.15,2013-06-16 22:25:00,
2013-06-16 17:30:00,87.0,71.9,29.80,West,267,0.0,0.0,61,0.00,,,0.00,Wunderground v.1.15,2013-06-16 22:30:00,
2013-06-16 17:40:00,87.0,72.4,29.80,SSE,151,1.0,2.0,62,0.00,,,0.00,Wunderground v.1.15,2013-06-16 22:40:00,
2013-06-16 17:50:00,85.5,71.0,29.80,SSW,200,0.0,0.0,62,0.00,,,0.00,Wunderground v.1.15,2013-06-16 22:50:00,
2013-06-16 18:00:00,84.7,72.1,29.80,SSW,201,0.0,0.0,66,0.00,,,0.00,Wunderground v.1.15,2013-06-16 23:00:00,
2013-06-16 18:05:00,84.7,72.1,29.80,SSW,201,0.0,0.0,66,0.00,,,0.00,Wunderground v.1.15,2013-06-16 23:05:00,
2013-06-16 18:15:00,84.7,72.1,29.80,South,184,0.0,0.0,66,0.00,,,0.00,Wunderground v.1.15,2013-06-16 23:15:00,
2013-06-16 18:25:00,84.7,72.5,29.78,South,184,0.0,0.0,67,0.00,,,0.00,Wunderground v.1.15,2013-06-16 23:25:00,
2013-06-16 18:30:00,84.3,72.6,29.78,South,184,0.0,0.0,68,0.00,,,0.00,Wunderground v.1.15,2013-06-16 23:30:00,
2013-06-16 18:40:00,84.3,72.6,29.78,South,184,0.0,0.0,68,0.00,,,0.00,Wunderground v.1.15,2013-06-16 23:40:00,
2013-06-16 18:50:00,84.1,72.0,29.78,South,184,0.0,0.0,67,0.00,,,0.00,Wunderground v.1.15,2013-06-16 23:50:00,
2013-06-16 18:59:00,84.0,72.3,29.78,South,184,0.0,0.0,68,0.00,,,0.00,Wunderground v.1.15,2013-06-16 23:59:00,
2013-06-16 19:05:00,83.8,72.5,29.79,South,184,0.0,0.0,69,0.00,,,0.00,Wunderground v.1.15,2013-06-17 00:05:00,
2013-06-16 19:15:00,83.2,72.8,29.79,South,184,0.0,0.0,71,0.00,,,0.00,Wunderground v.1.15,2013-06-17 00:15:00,
2013-06-16 19:25:00,82.8,72.4,29.79,South,184,0.0,0.0,71,0.00,,,0.00,Wunderground v.1.15,2013-06-17 00:25:00,
2013-06-16 19:35:00,82.6,71.8,29.79,South,184,0.0,0.0,70,0.00,,,0.00,Wunderground v.1.15,2013-06-17 00:35:00,
2013-06-16 19:44:00,82.4,71.6,29.79,South,185,0.0,0.0,70,0.00,,,0.00,Wunderground v.1.15,2013-06-17 00:44:00,
2013-06-16 19:50:00,82.2,71.4,29.80,South,186,0.0,0.0,70,0.00,,,0.00,Wunderground v.1.15,2013-06-17 00:50:00,
2013-06-16 20:00:00,82.0,71.7,29.80,SSW,206,1.0,3.0,71,0.00,,,0.00,Wunderground v.1.15,2013-06-17 01:00:00,
2013-06-16 20:05:00,81.8,71.5,29.80,SSW,205,1.0,3.0,71,0.00,,,0.00,Wunderground v.1.15,2013-06-17 01:05:00,
2013-06-16 20:10:00,81.8,71.5,29.80,SSW,201,1.0,1.0,71,0.00,,,0.00,Wunderground v.1.15,2013-06-17 01:10:00,
2013-06-16 20:19:00,81.4,71.1,29.80,South,174,0.0,2.0,71,0.00,,,0.00,Wunderground v.1.15,2013-06-17 01:19:00,
2013-06-16 20:25:00,80.7,68.7,29.80,East,95,1.0,3.0,67,0.00,,,0.00,Wunderground v.1.15,2013-06-17 01:25:00,
2013-06-16 20:35:00,78.5,66.6,29.82,ENE,57,2.0,2.0,67,0.00,,,0.00,Wunderground v.1.15,2013-06-17 01:35:00,
2013-06-16 20:45:00,76.5,65.6,29.82,NNE,30,3.0,5.0,69,0.00,,,0.00,Wunderground v.1.15,2013-06-17 01:45:00,
2013-06-16 20:55:00,76.0,62.9,29.83,SE,131,3.0,11.0,64,0.00,,,0.00,Wunderground v.1.15,2013-06-17 01:55:00,
2013-06-16 21:05:00,74.4,63.6,29.84,SSW,194,2.0,2.0,69,0.00,,,0.01,Wunderground v.1.15,2013-06-17 02:05:00,
2013-06-16 21:15:00,70.3,63.1,29.84,NE,53,3.0,4.0,78,0.19,,,0.03,Wunderground v.1.15,2013-06-17 02:15:00,
2013-06-16 21:25:00,67.8,61.8,29.85,SE,130,3.0,3.0,81,1.04,,,0.26,Wunderground v.1.15,2013-06-17 02:25:00,
2013-06-16 21:35:00,67.4,62.1,29.87,WSW,256,1.0,3.0,83,2.95,,,0.38,Wunderground v.1.15,2013-06-17 02:35:00,
2013-06-16 21:44:00,66.6,62.6,29.87,SE,143,1.0,1.0,87,1.96,,,0.69,Wunderground v.1.15,2013-06-17 02:44:00,
2013-06-16 21:50:00,66.3,62.6,29.87,ESE,119,2.0,4.0,88,1.65,,,0.85,Wunderground v.1.15,2013-06-17 02:50:00,
2013-06-16 22:00:00,66.3,62.3,29.87,ESE,111,2.0,6.0,87,1.60,,,1.09,Wunderground v.1.15,2013-06-17 03:00:00,
2013-06-16 22:05:00,66.0,62.3,29.85,ENE,65,3.0,6.0,88,0.29,,,1.16,Wunderground v.1.15,2013-06-17 03:05:00,
2013-06-16 22:15:00,68.1,63.1,29.85,East,100,4.0,5.0,84,0.10,,,1.18,Wunderground v.1.15,2013-06-17 03:15:00,
2013-06-16 22:25:00,68.3,63.3,29.85,WSW,250,2.0,2.0,84,0.04,,,1.18,Wunderground v.1.15,2013-06-17 03:25:00,
2013-06-16 22:35:00,68.1,64.1,29.85,WSW,240,2.0,4.0,87,0.00,,,1.19,Wunderground v.1.15,2013-06-17 03:35:00,
2013-06-16 22:45:00,68.6,64.9,29.85,SSW,196,3.0,5.0,88,0.06,,,1.20,Wunderground v.1.15,2013-06-17 03:45:00,
2013-06-16 22:50:00,68.8,65.4,29.85,SW,217,4.0,6.0,89,0.06,,,1.20,Wunderground v.1.15,2013-06-17 03:50:00,
2013-06-16 23:00:00,69.3,64.9,29.85,SW,231,4.0,4.0,86,0.04,,,1.20,Wunderground v.1.15,2013-06-17 04:00:00,
2013-06-16 23:05:00,69.1,64.7,29.84,SW,219,3.0,4.0,86,0.24,,,1.22,Wunderground v.1.15,2013-06-17 04:05:00,
2013-06-16 23:10:00,68.9,64.9,29.84,West,261,2.0,2.0,87,0.09,,,1.22,Wunderground v.1.15,2013-06-17 04:10:00,
2013-06-16 23:15:00,68.9,64.9,29.84,SSW,205,2.0,2.0,87,0.07,,,1.23,Wunderground v.1.15,2013-06-17 04:15:00,
2013-06-16 23:20:00,68.9,65.2,29.84,WSW,246,2.0,2.0,88,0.07,,,1.23,Wunderground v.1.15,2013-06-17 04:20:00,
2013-06-16 23:25:00,69.1,65.4,29.84,NNE,17,1.0,4.0,88,0.04,,,1.23,Wunderground v.1.15,2013-06-17 04:25:00,
2013-06-16 23:35:00,68.9,65.5,29.83,NNW,338,2.0,2.0,89,0.00,,,1.23,Wunderground v.1.15,2013-06-17 04:35:00,
2013-06-16 23:45:00,68.9,65.2,29.83,NNE,27,3.0,9.0,88,0.00,,,1.23,Wunderground v.1.15,2013-06-17 04:45:00,
2013-06-16 23:50:00,68.8,64.8,29.85,NNE,27,4.0,4.0,87,0.00,,,1.24,Wunderground v.1.15,2013-06-17 04:50:00,